Roanoke Regional Woodrum Field
KROA : now visible

Airfield :











YOU CAN JOIN US ON...

 
LOGIN :

Register | Disclaimer

   EN    FR    IT 

 









Legend :    VFR   Marginal VFR   IFR   Intensive IFR   Very Intensive IFR
Visi :
Ceiling :
>= 8 km
>= 3000ft
5 to 8 km
1000 to 3000 ft
1500m to 5 km
500 to 1000 ft
800 to 1500m
200 to 500 ft
< 800m
< 200 ft
Symbols :   Thunderstorms  Fog  Heavy snow  Heavy precipitations  Wind > 20 kt






- Airport Elevation : 1175 ft
- IATA code : ROA


KROA - Roanoke Regional Woodrum Field

CURRENT METAR :
  • 011754Z VRB03KT 10SM CLR 26/10 A3011 RMK AO2 SLP187 T02610100 10261 20156 58018

EXPIRED METARs :
  • 011654Z VRB06KT 10SM CLR 25/08 A3013 RMK AO2 SLP194 T02500083
  • 011554Z 02009KT 10SM FEW032 24/11 A3015 RMK AO2 SLP201 T02440111

TAF KROA
Valid from the 01 at 18:00 until the 02 at 18:00 UTC


011723Z 0118/0218 08007KT P6SM SCT120 BKN250
TEMPO 0118/0122 BKN120
FM012300 09005KT P6SM FEW250
KZDC FIR / North America



MET'MAP, your aeronautical weather chart ! - Copyright ORBIFLY December 2007 - Disclaimer

ORBIFLY MET'MAP TEAM :

Programming & Development : Alexandra Zaïnal
Original concept : Baudouin d'Aumeries
Technical & hardware support : Manuel Goepfert
Assistance : Marc-Olivier Méhu




SOURCES & CREDITS :

   NOAA       Earth
Advisory